Flight Track Log - Related Links

Times and Time Zones

All times are in EDT time to prevent confusion due to time zone crossing. See the PDT4347 flight status page for this flight to view local times or setup timezone preferences in your user account.

Time Position Orientation Groundspeed Altitude Reporting Facility
EDT Latitude Longitude Course Direction KTS MPH feet Rate Location/Type
Thu 09:13:16 PM 39.8667 -75.2833 180° South 122 140 800  Level Philadelphia TRACON
Thu 09:14:22 PM 39.8167 -75.2833 180° South 181 208 1,800 950 Climbing Philadelphia TRACON
Thu 09:15:16 PM 39.7667 -75.2833 180° South 189 217 2,700 632 Climbing Philadelphia TRACON
Thu 09:16:16 PM 39.7167 -75.2833 180° South 198 228 3,000 350 Climbing Philadelphia TRACON
Thu 09:17:16 PM 39.6500 -75.3000 191° South 219 252 3,400 500 Climbing Philadelphia TRACON
Thu 09:18:16 PM 39.6000 -75.3333 207° Southwest 209 241 4,000 48 Climbing Philadelphia TRACON
Thu 09:29:43 PM 38.8569 -75.4636 180° South 242 278 4,000  Level Washington Center
Thu 09:29:56 PM 38.8444 -75.4636 180° South 243 280 4,000  Level Washington Center
Thu 09:30:00 PM 38.8908 -75.5000 180° South  Level FlightAware Approximate
Thu 09:30:56 PM 38.7797 -75.4692 184° South 242 278 4,000  Level Washington Center
Thu 09:31:00 PM 38.8251 -75.5000 180° South  Level FlightAware Approximate
Thu 09:31:57 PM 38.7172 -75.4800 188° South 239 275 4,000  Level Washington Center
Thu 09:32:00 PM 38.7594 -75.5000 180° South  Level FlightAware Approximate
Thu 09:32:58 PM 38.6442 -75.4828 182° South 239 275 4,000  Level Washington Center
Thu 09:33:00 PM 38.6938 -75.5000 180° South  Level FlightAware Approximate
Thu 09:33:59 PM 38.5817 -75.4961 189° South 224 258 3,800  Level Washington Center
Thu 09:34:00 PM 38.6281 -75.5000 180° South  Level FlightAware Approximate
Thu 09:34:57 PM 38.5233 -75.5119 192° South 213 245 3,200  Level Washington Center
Thu 09:35:00 PM 38.5625 -75.5000 180° South  Level FlightAware Approximate
Thu 09:35:58 PM 38.4672 -75.5281 193° South 208 239 2,300  Level Washington Center
Thu 09:36:59 PM 38.4108 -75.5414 190° South 190 219 1,700 -738 Descending Washington Center
Thu 09:38:00 PM 38.3711 -75.5547 195° South 145 167 800 -885 Descending Washington Center

Login

Don't have an account? Register now (free) for customized features, flight alerts, and more!